Hauptseite
METAR-TAF:

METAR-TAF

Flughäfen :

Ngaoundéré, Kamerun

Breite: 07-21N, Länge: 013-34E, Höhe: 1114 m

Beobachtung

Neuester Wetterbericht von vor 10 Stunden und 10 Minuten, um 17:00 UTC
Wind 3 kt aus Süd/Südwest
Temperatur 20°C
Luftfeuchtigkeit 88%
Luftdruck 1017 hPa
Sichtweite 10 km oder mehr
Leicht bewölkt in der Höhe von 1600 ft

METAR: FKKN 171700Z 20003KT 9999 FEW016 20/18 Q1017

Zeit: 04:10 (03:10 UTC)


TAF: fehlend

Wetterbeobachtungen und Prognosen von mehr als 4000 Flughäfen (METAR und TAF Bericht).

Die verfügbaren Stationen werden durch gelbe und rote Markierungen auf der Karte dargestellt.

Führen Sie die Maus auf sie, um den Namen der Station zu sehen.

Darauf klicken, um die Beobachtung von Wetterbeobachtungen und Prognosen zu sehen.

Um die Karte zu ändern : klicken Sie auf den grünen Tasten mit einem schwarzen Kreuz Zum Vergrößern, auf den grünen Button mit einem Gedankenstrich zu verkleinern, oder auf die grünen Pfeile für benachbarte Karten.


METAR-TAF: